Tolley, North Dakota
Current Conditions -  °F | °C
As of 12:58 AM on Saturday 25 Oct 2014 (Local Time) from KMIB Reporting Station
Clear Clear  
Wind Chill: 32°   Ceiling: Unl
Heat Index: 38°   Visibility: 10mi
Dew Point: 30°   Wind: 8mph
Humidity: 73%   Direction: 280°W
Pressure: 30.02"   Gusts: NA
Location:  48.73°N, 101.83°W
Report Text: KMIB 250558Z AUTO 28007KT 10SM CLR 03/M01 A3002 RMK AO2 SLP177 T00341010 10110 20034 401870034 52017 $
Loading
Personal Weather Stations






























Interactive Weather Map
Tropical Storm Tracking
New forecast layout! Learn more

10-Day Weather Forecast

Advertisements
Track Severe Weather on mobile